Mark Center, OH

7:01 PM EST on February 11, 2016 (GMT -0500)
Hicksville | | Change Station
CLOSE
Current Station
Personal Weather Station
Location: Hicksville, OH
Elevation: 774 ft
Nearby Weather Stations

Elev 774 ft 41.30 °N, 84.76 °W | Updated 26 seconds ago

Overcast
Overcast
16.5 °F
Feels Like 16 °F
N
0.0
Wind Variable Wind from West

Today
High -- | Low -- °F
--% Chance of Precip.
Yesterday
High -- | Low -- °F
Precip. -- in
Pressure 30.32 in
Visibility 10.0 miles
Clouds Few 2800 ft
Mostly Cloudy 3400 ft
Mostly Cloudy 4800 ft
Windchill 16 °F
Dew Point 12 °F
Humidity 84%
Rainfall 0.00 in
Snow Depth Not available.
7:39 AM 6:06 PM
Waxing Crescent, 15% visible
METAR KDFI 112353Z AUTO 00000KT 10SM FEW028 BKN034 BKN048 M07/M13 A3028 RMK AO2 SLP268 T10721133 11050 21072 53007
Pressure 30.32 in
Visibility 10.0 miles
Clouds Few 2800 ft
Mostly Cloudy 3400 ft
Mostly Cloudy 4800 ft
Windchill 16 °F
Dew Point 12 °F
Humidity 84%
Rainfall 0.00 in
Snow Depth Not available.
7:39 AM 6:06 PM
Waxing Crescent, 15% visible
METAR KDFI 112353Z AUTO 00000KT 10SM FEW028 BKN034 BKN048 M07/M13 A3028 RMK AO2 SLP268 T10721133 11050 21072 53007

10-Day Weather Forecast

Almanac

Astronomy

Feb. 11, 2016 Rise Set
Actual Time
Civil Twilight
Nautical Twilight
Astronomical Twilight
Moon
Length of Visible Light
Length of Day
Tomorrow will be .
, % of the Moon is Illuminated

Today's Extremes

State Highs State Lows

Community

WunderPhotos

Upload Photos

1,892,186 photos uploaded!

WunderBlog® & News

Nearby

Air Quality

  Air Quality AQ Index Pollutant
Not available.

Snow Depth

Station Depth Elevation

Earthquake Activity

City Distance Mag. Time & Date
Minimum magnitude displayed is 2.5.

Coastal Water Temperatures

Place Temperature

Stations

Nearby Weather Stations

Station Location Temp. Windchill Dew Point Humidity Wind Precip. Elev Updated Type
                   

Watches & Warnings

There are currently no watches in effect.